sensor_id;sensor_type;location;lat;lon;timestamp;P1;durP1;ratioP1;P2;durP2;ratioP2
43327;SDS011;28923;45.412;10.852;2024-03-08T00:02:37;2.08;;;1.88;;
43327;SDS011;28923;45.412;10.852;2024-03-08T00:05:03;2.25;;;2.00;;
43327;SDS011;28923;45.412;10.852;2024-03-08T00:07:29;1.90;;;1.70;;
43327;SDS011;28923;45.412;10.852;2024-03-08T00:09:54;2.10;;;1.80;;
43327;SDS011;28923;45.412;10.852;2024-03-08T00:12:19;2.67;;;2.00;;
43327;SDS011;28923;45.412;10.852;2024-03-08T00:14:45;3.55;;;1.90;;
43327;SDS011;28923;45.412;10.852;2024-03-08T00:17:11;1.80;;;1.58;;
43327;SDS011;28923;45.412;10.852;2024-03-08T00:19:36;2.10;;;1.80;;
43327;SDS011;28923;45.412;10.852;2024-03-08T00:22:02;1.80;;;1.70;;
43327;SDS011;28923;45.412;10.852;2024-03-08T00:24:27;1.73;;;1.55;;
43327;SDS011;28923;45.412;10.852;2024-03-08T00:26:54;2.00;;;1.77;;
43327;SDS011;28923;45.412;10.852;2024-03-08T00:29:19;1.80;;;1.58;;
43327;SDS011;28923;45.412;10.852;2024-03-08T00:31:45;1.88;;;1.70;;
43327;SDS011;28923;45.412;10.852;2024-03-08T00:34:10;2.05;;;1.42;;
43327;SDS011;28923;45.412;10.852;2024-03-08T00:36:37;2.60;;;1.73;;
43327;SDS011;28923;45.412;10.852;2024-03-08T00:39:02;1.55;;;1.45;;
43327;SDS011;28923;45.412;10.852;2024-03-08T00:41:31;2.50;;;1.55;;
43327;SDS011;28923;45.412;10.852;2024-03-08T00:43:56;2.00;;;1.80;;
43327;SDS011;28923;45.412;10.852;2024-03-08T00:46:22;1.90;;;1.80;;
43327;SDS011;28923;45.412;10.852;2024-03-08T00:48:47;1.70;;;1.60;;
43327;SDS011;28923;45.412;10.852;2024-03-08T00:51:13;1.70;;;1.60;;
43327;SDS011;28923;45.412;10.852;2024-03-08T00:53:40;1.50;;;1.40;;
43327;SDS011;28923;45.412;10.852;2024-03-08T00:56:07;1.63;;;1.50;;
43327;SDS011;28923;45.412;10.852;2024-03-08T00:58:38;2.55;;;1.48;;
43327;SDS011;28923;45.412;10.852;2024-03-08T01:01:03;1.45;;;1.35;;
43327;SDS011;28923;45.412;10.852;2024-03-08T01:03:30;1.60;;;1.50;;
43327;SDS011;28923;45.412;10.852;2024-03-08T01:05:57;1.50;;;1.40;;
43327;SDS011;28923;45.412;10.852;2024-03-08T01:08:22;2.17;;;1.67;;
43327;SDS011;28923;45.412;10.852;2024-03-08T01:10:49;1.50;;;1.40;;
43327;SDS011;28923;45.412;10.852;2024-03-08T01:13:15;1.40;;;1.30;;
43327;SDS011;28923;45.412;10.852;2024-03-08T01:15:41;1.67;;;1.45;;
43327;SDS011;28923;45.412;10.852;2024-03-08T01:18:07;1.30;;;1.20;;
43327;SDS011;28923;45.412;10.852;2024-03-08T01:20:32;1.95;;;1.42;;
43327;SDS011;28923;45.412;10.852;2024-03-08T01:22:58;1.55;;;1.38;;
43327;SDS011;28923;45.412;10.852;2024-03-08T01:25:23;1.70;;;1.60;;
43327;SDS011;28923;45.412;10.852;2024-03-08T01:27:48;1.60;;;1.38;;
43327;SDS011;28923;45.412;10.852;2024-03-08T01:30:14;1.88;;;1.50;;
43327;SDS011;28923;45.412;10.852;2024-03-08T01:32:42;2.80;;;1.60;;
43327;SDS011;28923;45.412;10.852;2024-03-08T01:35:09;1.90;;;1.20;;
43327;SDS011;28923;45.412;10.852;2024-03-08T01:37:34;1.42;;;1.33;;
43327;SDS011;28923;45.412;10.852;2024-03-08T01:40:00;1.30;;;1.20;;
43327;SDS011;28923;45.412;10.852;2024-03-08T01:42:25;1.40;;;1.30;;
43327;SDS011;28923;45.412;10.852;2024-03-08T01:44:51;1.50;;;1.40;;
43327;SDS011;28923;45.412;10.852;2024-03-08T01:47:16;1.33;;;1.20;;
43327;SDS011;28923;45.412;10.852;2024-03-08T01:49:42;1.50;;;1.40;;
43327;SDS011;28923;45.412;10.852;2024-03-08T01:52:08;1.20;;;1.10;;
43327;SDS011;28923;45.412;10.852;2024-03-08T01:54:34;1.35;;;1.25;;
43327;SDS011;28923;45.412;10.852;2024-03-08T01:57:00;1.70;;;1.30;;
43327;SDS011;28923;45.412;10.852;2024-03-08T01:59:25;1.30;;;1.20;;
43327;SDS011;28923;45.412;10.852;2024-03-08T02:01:52;2.08;;;1.20;;
43327;SDS011;28923;45.412;10.852;2024-03-08T02:04:19;1.65;;;1.30;;
43327;SDS011;28923;45.412;10.852;2024-03-08T02:06:46;1.50;;;1.30;;
43327;SDS011;28923;45.412;10.852;2024-03-08T02:09:11;1.45;;;1.20;;
43327;SDS011;28923;45.412;10.852;2024-03-08T02:11:37;1.85;;;1.30;;
43327;SDS011;28923;45.412;10.852;2024-03-08T02:14:02;1.35;;;1.25;;
43327;SDS011;28923;45.412;10.852;2024-03-08T02:16:28;1.58;;;1.17;;
43327;SDS011;28923;45.412;10.852;2024-03-08T02:18:53;1.60;;;1.50;;
43327;SDS011;28923;45.412;10.852;2024-03-08T02:21:18;1.48;;;1.27;;
43327;SDS011;28923;45.412;10.852;2024-03-08T02:23:44;1.30;;;1.20;;
43327;SDS011;28923;45.412;10.852;2024-03-08T02:26:09;1.30;;;1.20;;
43327;SDS011;28923;45.412;10.852;2024-03-08T02:28:35;1.30;;;1.20;;
43327;SDS011;28923;45.412;10.852;2024-03-08T02:31:01;1.30;;;1.20;;
43327;SDS011;28923;45.412;10.852;2024-03-08T02:33:27;1.33;;;1.10;;
43327;SDS011;28923;45.412;10.852;2024-03-08T02:35:53;1.40;;;1.30;;
43327;SDS011;28923;45.412;10.852;2024-03-08T02:38:19;1.55;;;1.45;;
43327;SDS011;28923;45.412;10.852;2024-03-08T02:40:45;1.20;;;1.10;;
43327;SDS011;28923;45.412;10.852;2024-03-08T02:43:11;1.50;;;1.25;;
43327;SDS011;28923;45.412;10.852;2024-03-08T02:45:37;1.35;;;1.10;;
43327;SDS011;28923;45.412;10.852;2024-03-08T02:48:04;1.20;;;1.10;;
43327;SDS011;28923;45.412;10.852;2024-03-08T02:50:31;1.20;;;1.10;;
43327;SDS011;28923;45.412;10.852;2024-03-08T02:52:57;1.20;;;1.10;;
43327;SDS011;28923;45.412;10.852;2024-03-08T02:55:22;1.10;;;1.08;;
43327;SDS011;28923;45.412;10.852;2024-03-08T02:57:50;1.23;;;1.10;;
43327;SDS011;28923;45.412;10.852;2024-03-08T03:00:16;1.00;;;0.95;;
43327;SDS011;28923;45.412;10.852;2024-03-08T03:02:44;1.45;;;1.23;;
43327;SDS011;28923;45.412;10.852;2024-03-08T03:05:10;1.20;;;1.02;;
43327;SDS011;28923;45.412;10.852;2024-03-08T03:07:37;1.25;;;1.13;;
43327;SDS011;28923;45.412;10.852;2024-03-08T03:10:02;1.33;;;1.23;;
43327;SDS011;28923;45.412;10.852;2024-03-08T03:12:28;1.27;;;1.10;;
43327;SDS011;28923;45.412;10.852;2024-03-08T03:14:53;1.48;;;1.38;;
43327;SDS011;28923;45.412;10.852;2024-03-08T03:17:19;1.10;;;1.00;;
43327;SDS011;28923;45.412;10.852;2024-03-08T03:19:45;1.50;;;1.40;;
43327;SDS011;28923;45.412;10.852;2024-03-08T03:22:12;1.40;;;1.30;;
43327;SDS011;28923;45.412;10.852;2024-03-08T03:24:37;1.30;;;1.20;;
43327;SDS011;28923;45.412;10.852;2024-03-08T03:27:06;1.30;;;1.20;;
43327;SDS011;28923;45.412;10.852;2024-03-08T03:29:36;1.20;;;1.10;;
43327;SDS011;28923;45.412;10.852;2024-03-08T03:32:01;1.33;;;1.10;;
43327;SDS011;28923;45.412;10.852;2024-03-08T03:34:28;1.48;;;1.38;;
43327;SDS011;28923;45.412;10.852;2024-03-08T03:36:54;1.40;;;1.30;;
43327;SDS011;28923;45.412;10.852;2024-03-08T03:39:21;1.50;;;1.30;;
43327;SDS011;28923;45.412;10.852;2024-03-08T03:41:47;1.08;;;1.00;;
43327;SDS011;28923;45.412;10.852;2024-03-08T03:44:16;1.20;;;1.05;;
43327;SDS011;28923;45.412;10.852;2024-03-08T03:46:42;1.77;;;1.10;;
43327;SDS011;28923;45.412;10.852;2024-03-08T03:49:10;1.10;;;1.00;;
43327;SDS011;28923;45.412;10.852;2024-03-08T03:51:35;1.27;;;1.17;;
43327;SDS011;28923;45.412;10.852;2024-03-08T03:54:00;1.15;;;1.05;;
43327;SDS011;28923;45.412;10.852;2024-03-08T03:56:29;1.00;;;0.98;;
43327;SDS011;28923;45.412;10.852;2024-03-08T03:58:54;1.30;;;1.20;;
43327;SDS011;28923;45.412;10.852;2024-03-08T04:01:19;1.10;;;1.00;;
43327;SDS011;28923;45.412;10.852;2024-03-08T04:03:45;1.27;;;1.05;;
43327;SDS011;28923;45.412;10.852;2024-03-08T04:06:10;1.00;;;1.00;;
43327;SDS011;28923;45.412;10.852;2024-03-08T04:08:36;1.05;;;0.90;;
43327;SDS011;28923;45.412;10.852;2024-03-08T04:11:01;0.98;;;0.98;;
43327;SDS011;28923;45.412;10.852;2024-03-08T04:13:27;1.08;;;1.08;;
43327;SDS011;28923;45.412;10.852;2024-03-08T04:15:53;1.00;;;0.90;;
43327;SDS011;28923;45.412;10.852;2024-03-08T04:18:18;1.00;;;1.00;;
43327;SDS011;28923;45.412;10.852;2024-03-08T04:20:44;1.13;;;1.00;;
43327;SDS011;28923;45.412;10.852;2024-03-08T04:23:10;1.23;;;1.13;;
43327;SDS011;28923;45.412;10.852;2024-03-08T04:25:36;1.25;;;1.00;;
43327;SDS011;28923;45.412;10.852;2024-03-08T04:28:01;0.77;;;0.77;;
43327;SDS011;28923;45.412;10.852;2024-03-08T04:30:27;0.80;;;0.80;;
43327;SDS011;28923;45.412;10.852;2024-03-08T04:32:53;1.02;;;0.90;;
43327;SDS011;28923;45.412;10.852;2024-03-08T04:35:19;1.05;;;1.00;;
43327;SDS011;28923;45.412;10.852;2024-03-08T04:37:45;0.95;;;0.82;;
43327;SDS011;28923;45.412;10.852;2024-03-08T04:40:11;0.82;;;0.82;;
43327;SDS011;28923;45.412;10.852;2024-03-08T04:42:37;1.15;;;0.93;;
43327;SDS011;28923;45.412;10.852;2024-03-08T04:45:03;1.08;;;1.00;;
43327;SDS011;28923;45.412;10.852;2024-03-08T04:47:29;0.85;;;0.80;;
43327;SDS011;28923;45.412;10.852;2024-03-08T04:49:54;0.70;;;0.70;;
43327;SDS011;28923;45.412;10.852;2024-03-08T04:52:21;1.08;;;1.00;;
43327;SDS011;28923;45.412;10.852;2024-03-08T04:54:47;0.88;;;0.88;;
43327;SDS011;28923;45.412;10.852;2024-03-08T04:57:12;0.80;;;0.80;;
43327;SDS011;28923;45.412;10.852;2024-03-08T04:59:38;1.70;;;0.80;;
43327;SDS011;28923;45.412;10.852;2024-03-08T05:02:03;0.73;;;0.73;;
43327;SDS011;28923;45.412;10.852;2024-03-08T05:04:29;1.00;;;0.85;;
43327;SDS011;28923;45.412;10.852;2024-03-08T05:06:54;0.70;;;0.70;;
43327;SDS011;28923;45.412;10.852;2024-03-08T05:09:20;0.95;;;0.90;;
43327;SDS011;28923;45.412;10.852;2024-03-08T05:11:46;0.70;;;0.70;;
43327;SDS011;28923;45.412;10.852;2024-03-08T05:14:13;0.93;;;0.80;;
43327;SDS011;28923;45.412;10.852;2024-03-08T05:16:45;1.10;;;1.00;;
43327;SDS011;28923;45.412;10.852;2024-03-08T05:19:14;0.90;;;0.90;;
43327;SDS011;28923;45.412;10.852;2024-03-08T05:21:42;0.70;;;0.70;;
43327;SDS011;28923;45.412;10.852;2024-03-08T05:24:08;0.82;;;0.82;;
43327;SDS011;28923;45.412;10.852;2024-03-08T05:26:35;0.80;;;0.80;;
43327;SDS011;28923;45.412;10.852;2024-03-08T05:29:00;0.95;;;0.90;;
43327;SDS011;28923;45.412;10.852;2024-03-08T05:31:26;1.10;;;1.00;;
43327;SDS011;28923;45.412;10.852;2024-03-08T05:33:53;0.90;;;0.70;;
43327;SDS011;28923;45.412;10.852;2024-03-08T05:36:20;3.03;;;0.80;;
43327;SDS011;28923;45.412;10.852;2024-03-08T05:38:46;1.15;;;0.95;;
43327;SDS011;28923;45.412;10.852;2024-03-08T05:41:12;2.55;;;0.90;;
43327;SDS011;28923;45.412;10.852;2024-03-08T05:43:37;2.25;;;0.80;;
43327;SDS011;28923;45.412;10.852;2024-03-08T05:46:03;0.80;;;0.80;;
43327;SDS011;28923;45.412;10.852;2024-03-08T05:48:29;0.93;;;0.90;;
43327;SDS011;28923;45.412;10.852;2024-03-08T05:50:57;0.80;;;0.80;;
43327;SDS011;28923;45.412;10.852;2024-03-08T05:53:23;1.00;;;0.90;;
43327;SDS011;28923;45.412;10.852;2024-03-08T05:55:48;1.52;;;1.20;;
43327;SDS011;28923;45.412;10.852;2024-03-08T05:58:14;1.38;;;1.10;;
43327;SDS011;28923;45.412;10.852;2024-03-08T06:00:40;1.33;;;1.00;;
43327;SDS011;28923;45.412;10.852;2024-03-08T06:03:05;1.80;;;0.90;;
43327;SDS011;28923;45.412;10.852;2024-03-08T06:05:31;1.70;;;0.98;;
43327;SDS011;28923;45.412;10.852;2024-03-08T06:07:56;1.10;;;0.93;;
43327;SDS011;28923;45.412;10.852;2024-03-08T06:10:22;2.97;;;0.90;;
43327;SDS011;28923;45.412;10.852;2024-03-08T06:12:47;3.35;;;1.23;;
43327;SDS011;28923;45.412;10.852;2024-03-08T06:15:13;2.83;;;0.88;;
43327;SDS011;28923;45.412;10.852;2024-03-08T06:17:41;4.90;;;1.67;;
43327;SDS011;28923;45.412;10.852;2024-03-08T06:20:07;6.40;;;1.80;;
43327;SDS011;28923;45.412;10.852;2024-03-08T06:22:37;2.08;;;1.10;;
43327;SDS011;28923;45.412;10.852;2024-03-08T06:25:02;4.20;;;1.60;;
43327;SDS011;28923;45.412;10.852;2024-03-08T06:27:28;6.72;;;1.45;;
43327;SDS011;28923;45.412;10.852;2024-03-08T06:29:53;4.55;;;1.30;;
43327;SDS011;28923;45.412;10.852;2024-03-08T06:32:18;4.72;;;1.20;;
43327;SDS011;28923;45.412;10.852;2024-03-08T06:34:44;6.00;;;1.50;;
43327;SDS011;28923;45.412;10.852;2024-03-08T06:37:09;5.32;;;1.40;;
43327;SDS011;28923;45.412;10.852;2024-03-08T06:39:34;5.32;;;1.15;;
43327;SDS011;28923;45.412;10.852;2024-03-08T06:42:01;4.80;;;1.42;;
43327;SDS011;28923;45.412;10.852;2024-03-08T06:44:26;1.73;;;1.10;;
43327;SDS011;28923;45.412;10.852;2024-03-08T06:46:52;2.03;;;1.10;;
43327;SDS011;28923;45.412;10.852;2024-03-08T06:49:17;2.08;;;1.30;;
43327;SDS011;28923;45.412;10.852;2024-03-08T06:51:43;1.23;;;1.02;;
43327;SDS011;28923;45.412;10.852;2024-03-08T06:54:08;4.93;;;1.13;;
43327;SDS011;28923;45.412;10.852;2024-03-08T06:56:34;2.95;;;1.27;;
43327;SDS011;28923;45.412;10.852;2024-03-08T06:59:00;2.83;;;1.30;;
43327;SDS011;28923;45.412;10.852;2024-03-08T07:01:25;1.80;;;1.13;;
43327;SDS011;28923;45.412;10.852;2024-03-08T07:03:50;4.15;;;1.55;;
43327;SDS011;28923;45.412;10.852;2024-03-08T07:06:18;4.70;;;1.10;;
43327;SDS011;28923;45.412;10.852;2024-03-08T07:08:44;2.67;;;1.30;;
43327;SDS011;28923;45.412;10.852;2024-03-08T07:11:11;2.10;;;1.40;;
43327;SDS011;28923;45.412;10.852;2024-03-08T07:13:38;4.25;;;1.20;;
43327;SDS011;28923;45.412;10.852;2024-03-08T07:16:07;5.40;;;1.50;;
43327;SDS011;28923;45.412;10.852;2024-03-08T07:18:33;3.53;;;1.05;;
43327;SDS011;28923;45.412;10.852;2024-03-08T07:20:59;2.92;;;1.10;;
43327;SDS011;28923;45.412;10.852;2024-03-08T07:23:27;2.05;;;1.30;;
43327;SDS011;28923;45.412;10.852;2024-03-08T07:26:11;2.75;;;1.30;;
43327;SDS011;28923;45.412;10.852;2024-03-08T07:28:36;1.33;;;0.93;;
43327;SDS011;28923;45.412;10.852;2024-03-08T07:31:02;2.95;;;1.40;;
43327;SDS011;28923;45.412;10.852;2024-03-08T07:33:42;2.28;;;1.23;;
43327;SDS011;28923;45.412;10.852;2024-03-08T07:36:08;4.53;;;1.40;;
43327;SDS011;28923;45.412;10.852;2024-03-08T07:38:33;2.40;;;1.20;;
43327;SDS011;28923;45.412;10.852;2024-03-08T07:40:59;1.75;;;1.20;;
43327;SDS011;28923;45.412;10.852;2024-03-08T07:43:25;1.52;;;1.08;;
43327;SDS011;28923;45.412;10.852;2024-03-08T07:45:51;1.75;;;1.17;;
43327;SDS011;28923;45.412;10.852;2024-03-08T07:48:18;2.30;;;1.20;;
43327;SDS011;28923;45.412;10.852;2024-03-08T07:50:43;1.48;;;1.05;;
43327;SDS011;28923;45.412;10.852;2024-03-08T07:53:09;2.58;;;1.08;;
43327;SDS011;28923;45.412;10.852;2024-03-08T07:55:35;1.65;;;1.20;;
43327;SDS011;28923;45.412;10.852;2024-03-08T07:58:01;1.65;;;1.08;;
43327;SDS011;28923;45.412;10.852;2024-03-08T08:00:26;1.40;;;1.30;;
43327;SDS011;28923;45.412;10.852;2024-03-08T08:02:53;2.00;;;1.13;;
43327;SDS011;28923;45.412;10.852;2024-03-08T08:05:18;3.88;;;1.45;;
43327;SDS011;28923;45.412;10.852;2024-03-08T08:07:44;3.40;;;1.20;;
43327;SDS011;28923;45.412;10.852;2024-03-08T08:10:11;1.25;;;1.13;;
43327;SDS011;28923;45.412;10.852;2024-03-08T08:12:43;1.80;;;1.23;;
43327;SDS011;28923;45.412;10.852;2024-03-08T08:15:09;2.25;;;1.10;;
43327;SDS011;28923;45.412;10.852;2024-03-08T08:17:34;1.40;;;1.30;;
43327;SDS011;28923;45.412;10.852;2024-03-08T08:20:00;1.73;;;1.25;;
43327;SDS011;28923;45.412;10.852;2024-03-08T08:22:25;1.80;;;1.42;;
43327;SDS011;28923;45.412;10.852;2024-03-08T08:24:50;1.92;;;1.20;;
43327;SDS011;28923;45.412;10.852;2024-03-08T08:27:17;4.03;;;1.25;;
43327;SDS011;28923;45.412;10.852;2024-03-08T08:29:42;2.45;;;1.20;;
43327;SDS011;28923;45.412;10.852;2024-03-08T08:32:08;2.80;;;1.20;;
43327;SDS011;28923;45.412;10.852;2024-03-08T08:34:35;1.58;;;1.33;;
43327;SDS011;28923;45.412;10.852;2024-03-08T08:37:00;3.05;;;1.15;;
43327;SDS011;28923;45.412;10.852;2024-03-08T08:39:26;1.98;;;1.20;;
43327;SDS011;28923;45.412;10.852;2024-03-08T08:41:51;1.80;;;1.20;;
43327;SDS011;28923;45.412;10.852;2024-03-08T08:44:16;1.95;;;1.08;;
43327;SDS011;28923;45.412;10.852;2024-03-08T08:46:42;1.55;;;1.17;;
43327;SDS011;28923;45.412;10.852;2024-03-08T08:49:07;1.50;;;1.20;;
43327;SDS011;28923;45.412;10.852;2024-03-08T08:51:36;1.77;;;1.27;;
43327;SDS011;28923;45.412;10.852;2024-03-08T08:54:01;1.50;;;1.40;;
43327;SDS011;28923;45.412;10.852;2024-03-08T08:56:27;2.53;;;1.30;;
43327;SDS011;28923;45.412;10.852;2024-03-08T08:58:53;1.25;;;1.15;;
43327;SDS011;28923;45.412;10.852;2024-03-08T09:01:19;1.45;;;1.23;;
43327;SDS011;28923;45.412;10.852;2024-03-08T09:03:45;1.20;;;1.10;;
43327;SDS011;28923;45.412;10.852;2024-03-08T09:06:11;1.23;;;1.10;;
43327;SDS011;28923;45.412;10.852;2024-03-08T09:08:41;1.30;;;1.20;;
43327;SDS011;28923;45.412;10.852;2024-03-08T09:11:06;1.88;;;1.10;;
43327;SDS011;28923;45.412;10.852;2024-03-08T09:13:32;1.58;;;1.27;;
43327;SDS011;28923;45.412;10.852;2024-03-08T09:15:59;2.30;;;1.17;;
43327;SDS011;28923;45.412;10.852;2024-03-08T09:18:24;1.25;;;1.10;;
43327;SDS011;28923;45.412;10.852;2024-03-08T09:20:50;1.33;;;1.17;;
43327;SDS011;28923;45.412;10.852;2024-03-08T09:23:19;1.48;;;1.10;;
43327;SDS011;28923;45.412;10.852;2024-03-08T09:25:44;2.47;;;1.50;;
43327;SDS011;28923;45.412;10.852;2024-03-08T09:28:10;1.17;;;1.10;;
43327;SDS011;28923;45.412;10.852;2024-03-08T09:30:37;1.42;;;1.23;;
43327;SDS011;28923;45.412;10.852;2024-03-08T09:33:03;2.28;;;1.30;;
43327;SDS011;28923;45.412;10.852;2024-03-08T09:35:29;1.88;;;1.50;;
43327;SDS011;28923;45.412;10.852;2024-03-08T09:37:55;2.55;;;1.30;;
43327;SDS011;28923;45.412;10.852;2024-03-08T09:40:21;1.85;;;1.33;;
43327;SDS011;28923;45.412;10.852;2024-03-08T09:42:48;2.30;;;1.17;;
43327;SDS011;28923;45.412;10.852;2024-03-08T09:45:14;1.73;;;1.30;;
43327;SDS011;28923;45.412;10.852;2024-03-08T09:47:42;3.05;;;1.20;;
43327;SDS011;28923;45.412;10.852;2024-03-08T09:50:09;1.50;;;1.40;;
43327;SDS011;28923;45.412;10.852;2024-03-08T09:52:41;2.00;;;1.13;;
43327;SDS011;28923;45.412;10.852;2024-03-08T09:55:09;2.30;;;1.40;;
43327;SDS011;28923;45.412;10.852;2024-03-08T09:57:36;1.40;;;1.15;;
43327;SDS011;28923;45.412;10.852;2024-03-08T10:00:02;1.30;;;1.20;;
43327;SDS011;28923;45.412;10.852;2024-03-08T10:02:33;1.83;;;1.17;;
43327;SDS011;28923;45.412;10.852;2024-03-08T10:04:59;1.83;;;1.42;;
43327;SDS011;28923;45.412;10.852;2024-03-08T10:07:28;1.63;;;1.50;;
43327;SDS011;28923;45.412;10.852;2024-03-08T10:09:53;1.42;;;1.25;;
43327;SDS011;28923;45.412;10.852;2024-03-08T10:12:19;1.40;;;1.25;;
43327;SDS011;28923;45.412;10.852;2024-03-08T10:14:45;1.50;;;1.40;;
43327;SDS011;28923;45.412;10.852;2024-03-08T10:17:11;2.53;;;1.60;;
43327;SDS011;28923;45.412;10.852;2024-03-08T10:19:37;1.77;;;1.50;;
43327;SDS011;28923;45.412;10.852;2024-03-08T10:22:02;1.27;;;1.17;;
43327;SDS011;28923;45.412;10.852;2024-03-08T10:24:29;1.65;;;1.30;;
43327;SDS011;28923;45.412;10.852;2024-03-08T10:27:01;2.10;;;1.48;;
43327;SDS011;28923;45.412;10.852;2024-03-08T10:29:31;1.95;;;1.40;;
43327;SDS011;28923;45.412;10.852;2024-03-08T10:31:56;1.50;;;1.40;;
43327;SDS011;28923;45.412;10.852;2024-03-08T10:34:22;1.60;;;1.38;;
43327;SDS011;28923;45.412;10.852;2024-03-08T10:36:51;2.30;;;1.30;;
43327;SDS011;28923;45.412;10.852;2024-03-08T10:39:23;1.90;;;1.45;;
43327;SDS011;28923;45.412;10.852;2024-03-08T10:41:52;1.50;;;1.40;;
43327;SDS011;28923;45.412;10.852;2024-03-08T10:44:22;1.60;;;1.50;;
43327;SDS011;28923;45.412;10.852;2024-03-08T10:47:09;1.20;;;1.10;;
43327;SDS011;28923;45.412;10.852;2024-03-08T10:52:21;1.50;;;1.38;;
43327;SDS011;28923;45.412;10.852;2024-03-08T10:54:47;4.20;;;1.40;;
43327;SDS011;28923;45.412;10.852;2024-03-08T10:57:13;1.42;;;1.30;;
43327;SDS011;28923;45.412;10.852;2024-03-08T10:59:40;1.40;;;1.30;;
43327;SDS011;28923;45.412;10.852;2024-03-08T11:02:11;1.50;;;1.40;;
43327;SDS011;28923;45.412;10.852;2024-03-08T11:04:37;1.90;;;1.40;;
43327;SDS011;28923;45.412;10.852;2024-03-08T11:07:02;3.47;;;1.25;;
43327;SDS011;28923;45.412;10.852;2024-03-08T11:14:44;1.55;;;1.45;;
43327;SDS011;28923;45.412;10.852;2024-03-08T11:17:13;1.85;;;1.30;;
43327;SDS011;28923;45.412;10.852;2024-03-08T11:19:44;2.35;;;1.38;;
43327;SDS011;28923;45.412;10.852;2024-03-08T11:22:13;2.87;;;1.40;;
43327;SDS011;28923;45.412;10.852;2024-03-08T11:24:46;1.60;;;1.50;;
43327;SDS011;28923;45.412;10.852;2024-03-08T11:27:11;1.42;;;1.33;;
43327;SDS011;28923;45.412;10.852;2024-03-08T11:29:37;1.30;;;1.20;;
43327;SDS011;28923;45.412;10.852;2024-03-08T11:34:36;1.60;;;1.40;;
43327;SDS011;28923;45.412;10.852;2024-03-08T11:37:12;1.83;;;1.50;;
43327;SDS011;28923;45.412;10.852;2024-03-08T11:39:38;1.67;;;1.40;;
43327;SDS011;28923;45.412;10.852;2024-03-08T11:42:04;1.50;;;1.40;;
43327;SDS011;28923;45.412;10.852;2024-03-08T11:44:30;1.52;;;1.40;;
43327;SDS011;28923;45.412;10.852;2024-03-08T11:46:56;1.63;;;1.45;;
43327;SDS011;28923;45.412;10.852;2024-03-08T11:49:22;2.13;;;1.60;;
43327;SDS011;28923;45.412;10.852;2024-03-08T11:51:52;1.50;;;1.40;;
43327;SDS011;28923;45.412;10.852;2024-03-08T11:54:18;1.55;;;1.20;;
43327;SDS011;28923;45.412;10.852;2024-03-08T11:56:44;1.60;;;1.50;;
43327;SDS011;28923;45.412;10.852;2024-03-08T11:59:12;1.48;;;1.38;;
43327;SDS011;28923;45.412;10.852;2024-03-08T12:01:40;1.50;;;1.40;;
43327;SDS011;28923;45.412;10.852;2024-03-08T12:04:06;1.52;;;1.42;;
43327;SDS011;28923;45.412;10.852;2024-03-08T12:06:38;1.67;;;1.58;;
43327;SDS011;28923;45.412;10.852;2024-03-08T12:09:10;2.20;;;1.50;;
43327;SDS011;28923;45.412;10.852;2024-03-08T12:11:39;1.70;;;1.48;;
43327;SDS011;28923;45.412;10.852;2024-03-08T12:14:06;1.60;;;1.33;;
43327;SDS011;28923;45.412;10.852;2024-03-08T12:16:32;1.33;;;1.23;;
43327;SDS011;28923;45.412;10.852;2024-03-08T12:18:57;1.83;;;1.45;;
43327;SDS011;28923;45.412;10.852;2024-03-08T12:21:23;1.40;;;1.30;;
43327;SDS011;28923;45.412;10.852;2024-03-08T12:24:07;2.03;;;1.23;;
43327;SDS011;28923;45.412;10.852;2024-03-08T12:26:36;1.38;;;1.10;;
43327;SDS011;28923;45.412;10.852;2024-03-08T12:31:42;1.05;;;0.98;;
43327;SDS011;28923;45.412;10.852;2024-03-08T12:34:07;1.20;;;1.10;;
43327;SDS011;28923;45.412;10.852;2024-03-08T12:36:35;1.40;;;1.30;;
43327;SDS011;28923;45.412;10.852;2024-03-08T12:39:01;1.40;;;1.30;;
43327;SDS011;28923;45.412;10.852;2024-03-08T12:41:29;1.48;;;1.13;;
43327;SDS011;28923;45.412;10.852;2024-03-08T12:43:54;1.55;;;1.45;;
43327;SDS011;28923;45.412;10.852;2024-03-08T12:46:21;1.30;;;1.20;;
43327;SDS011;28923;45.412;10.852;2024-03-08T12:48:47;1.42;;;1.20;;
43327;SDS011;28923;45.412;10.852;2024-03-08T12:51:13;1.40;;;1.30;;
43327;SDS011;28923;45.412;10.852;2024-03-08T12:53:38;1.48;;;1.38;;
43327;SDS011;28923;45.412;10.852;2024-03-08T12:56:06;1.58;;;1.48;;
43327;SDS011;28923;45.412;10.852;2024-03-08T12:58:34;1.30;;;1.20;;
43327;SDS011;28923;45.412;10.852;2024-03-08T13:00:59;1.40;;;1.30;;
43327;SDS011;28923;45.412;10.852;2024-03-08T13:03:25;0.80;;;0.80;;
43327;SDS011;28923;45.412;10.852;2024-03-08T13:05:51;1.20;;;1.10;;
43327;SDS011;28923;45.412;10.852;2024-03-08T13:08:16;1.20;;;1.10;;
43327;SDS011;28923;45.412;10.852;2024-03-08T13:10:43;1.67;;;1.30;;
43327;SDS011;28923;45.412;10.852;2024-03-08T13:13:09;2.85;;;1.27;;
43327;SDS011;28923;45.412;10.852;2024-03-08T13:15:35;1.67;;;1.20;;
43327;SDS011;28923;45.412;10.852;2024-03-08T13:18:00;3.88;;;1.48;;
43327;SDS011;28923;45.412;10.852;2024-03-08T13:20:26;2.85;;;1.27;;
43327;SDS011;28923;45.412;10.852;2024-03-08T13:22:53;3.42;;;1.40;;
43327;SDS011;28923;45.412;10.852;2024-03-08T13:25:19;4.38;;;1.50;;
43327;SDS011;28923;45.412;10.852;2024-03-08T13:27:45;2.88;;;1.30;;
43327;SDS011;28923;45.412;10.852;2024-03-08T13:30:11;4.53;;;1.35;;
43327;SDS011;28923;45.412;10.852;2024-03-08T13:32:43;2.85;;;1.50;;
43327;SDS011;28923;45.412;10.852;2024-03-08T13:35:09;1.38;;;1.27;;
43327;SDS011;28923;45.412;10.852;2024-03-08T13:37:38;3.65;;;1.70;;
43327;SDS011;28923;45.412;10.852;2024-03-08T13:40:05;5.70;;;1.20;;
43327;SDS011;28923;45.412;10.852;2024-03-08T13:42:31;3.55;;;1.35;;
43327;SDS011;28923;45.412;10.852;2024-03-08T13:44:56;3.35;;;1.33;;
43327;SDS011;28923;45.412;10.852;2024-03-08T13:47:21;2.78;;;1.40;;
43327;SDS011;28923;45.412;10.852;2024-03-08T13:49:48;2.13;;;1.42;;
43327;SDS011;28923;45.412;10.852;2024-03-08T13:52:15;3.75;;;1.65;;
43327;SDS011;28923;45.412;10.852;2024-03-08T13:54:41;5.82;;;2.13;;
43327;SDS011;28923;45.412;10.852;2024-03-08T13:57:07;7.25;;;1.70;;
43327;SDS011;28923;45.412;10.852;2024-03-08T13:59:35;7.78;;;1.90;;
43327;SDS011;28923;45.412;10.852;2024-03-08T14:02:01;6.15;;;1.73;;
43327;SDS011;28923;45.412;10.852;2024-03-08T14:04:30;8.88;;;1.50;;
43327;SDS011;28923;45.412;10.852;2024-03-08T14:06:56;5.15;;;1.40;;
43327;SDS011;28923;45.412;10.852;2024-03-08T14:09:29;5.47;;;2.03;;
43327;SDS011;28923;45.412;10.852;2024-03-08T14:11:56;6.18;;;1.70;;
43327;SDS011;28923;45.412;10.852;2024-03-08T14:14:22;3.90;;;1.60;;
43327;SDS011;28923;45.412;10.852;2024-03-08T14:16:50;11.45;;;2.35;;
43327;SDS011;28923;45.412;10.852;2024-03-08T14:19:20;12.35;;;2.15;;
43327;SDS011;28923;45.412;10.852;2024-03-08T14:21:46;7.68;;;1.67;;
43327;SDS011;28923;45.412;10.852;2024-03-08T14:24:13;3.72;;;1.65;;
43327;SDS011;28923;45.412;10.852;2024-03-08T14:26:40;2.90;;;1.35;;
43327;SDS011;28923;45.412;10.852;2024-03-08T14:29:07;5.30;;;1.60;;
43327;SDS011;28923;45.412;10.852;2024-03-08T14:31:32;5.28;;;1.50;;
43327;SDS011;28923;45.412;10.852;2024-03-08T14:33:58;4.00;;;1.50;;
43327;SDS011;28923;45.412;10.852;2024-03-08T14:36:24;6.40;;;1.60;;
43327;SDS011;28923;45.412;10.852;2024-03-08T14:38:51;2.25;;;1.30;;
43327;SDS011;28923;45.412;10.852;2024-03-08T14:41:17;1.90;;;1.27;;
43327;SDS011;28923;45.412;10.852;2024-03-08T14:43:43;2.75;;;1.80;;